Time;durP1;ratioP1;P1;durP2;ratioP2;P2;SDS_P1;SDS_P2;PMS_P1;PMS_P2;Temp;Humidity;BMP_temperature;BMP_pressure;BME280_temperature;BME280_humidity;BME280_pressure;Samples;Min_cycle;Max_cycle;Signal;HPM_P1;HPM_P2
2022/09/22 00:01:58;;;;;;;8.03;7.20;;;9.00;99.90;;;;;;5095754;28;20464;-81
2022/09/22 00:04:26;;;;;;;7.93;7.20;;;9.00;99.90;;;;;;5096772;28;20919;-81
2022/09/22 00:06:56;;;;;;;9.70;7.80;;;9.00;99.90;;;;;;5096912;28;20444;-81
2022/09/22 00:09:24;;;;;;;8.80;7.90;;;9.00;99.90;;;;;;5096596;28;20474;-80
2022/09/22 00:11:52;;;;;;;7.87;7.03;;;8.90;99.90;;;;;;5094737;28;20483;-81
2022/09/22 00:14:23;;;;;;;7.80;7.00;;;8.90;99.90;;;;;;5095706;28;20448;-79
2022/09/22 00:16:53;;;;;;;8.53;7.30;;;8.90;99.90;;;;;;5095023;28;20462;-80
2022/09/22 00:19:25;;;;;;;7.77;7.07;;;8.90;99.90;;;;;;5095262;28;20452;-81
2022/09/22 00:21:54;;;;;;;7.47;6.67;;;8.90;99.90;;;;;;5094687;28;20456;-80
2022/09/22 00:24:24;;;;;;;6.57;5.87;;;8.90;99.90;;;;;;5095250;28;20463;-79
2022/09/22 00:26:55;;;;;;;7.87;6.83;;;8.80;99.90;;;;;;5096872;28;20436;-79
2022/09/22 00:29:24;;;;;;;7.13;6.53;;;8.80;99.90;;;;;;5096022;28;20586;-79
2022/09/22 00:31:53;;;;;;;8.00;6.37;;;8.80;99.90;;;;;;5094369;28;20494;-80
2022/09/22 00:34:24;;;;;;;7.50;6.80;;;8.70;99.90;;;;;;5096027;28;20476;-80
2022/09/22 00:36:53;;;;;;;7.50;6.77;;;8.70;99.90;;;;;;5094944;28;20437;-79
2022/09/22 00:39:21;;;;;;;8.17;7.37;;;8.70;99.90;;;;;;5094953;28;20463;-80
2022/09/22 00:41:51;;;;;;;7.50;6.80;;;8.70;99.90;;;;;;5095602;28;20969;-80
2022/09/22 00:44:36;;;;;;;7.33;6.60;;;8.70;99.90;;;;;;5094933;28;20527;-79
2022/09/22 00:47:23;;;;;;;7.07;6.37;;;8.70;99.90;;;;;;5094477;28;20474;-80
2022/09/22 00:49:56;;;;;;;7.43;6.50;;;8.60;99.90;;;;;;5094493;28;20464;-80
2022/09/22 00:52:28;;;;;;;8.43;6.17;;;8.70;99.90;;;;;;5096015;28;20505;-80
2022/09/22 00:55:00;;;;;;;7.60;6.80;;;8.60;99.90;;;;;;5095974;28;20468;-80
2022/09/22 00:57:31;;;;;;;7.90;6.33;;;8.60;99.90;;;;;;5095910;28;20832;-80
2022/09/22 01:00:01;;;;;;;6.80;6.10;;;8.60;99.90;;;;;;5094872;28;20443;-79
2022/09/22 01:02:29;;;;;;;7.00;5.97;;;8.50;99.90;;;;;;5094487;28;20459;-79
2022/09/22 01:04:59;;;;;;;8.60;6.53;;;8.50;99.90;;;;;;5095714;28;20516;-80
2022/09/22 01:07:30;;;;;;;7.47;6.77;;;8.50;99.90;;;;;;5095851;28;20848;-80
2022/09/22 01:09:58;;;;;;;7.00;6.27;;;8.50;99.90;;;;;;5095602;28;20560;-80
2022/09/22 01:12:29;;;;;;;8.87;7.20;;;8.50;99.90;;;;;;5094992;28;20481;-80
2022/09/22 01:15:19;;;;;;;6.80;5.90;;;8.40;99.90;;;;;;5096158;28;20535;-80
2022/09/22 01:17:58;;;;;;;6.80;6.10;;;8.40;99.90;;;;;;5096124;28;20852;-79
2022/09/22 01:21:04;;;;;;;7.10;5.60;;;8.40;99.90;;;;;;5096993;28;20440;-80
2022/09/22 01:24:06;;;;;;;7.63;6.83;;;8.40;99.90;;;;;;5097251;28;20471;-79
2022/09/22 01:26:59;;;;;;;6.77;6.17;;;8.30;99.90;;;;;;5101916;28;20432;-80
2022/09/22 01:29:59;;;;;;;6.93;6.27;;;8.30;99.90;;;;;;5099819;28;20723;-79
2022/09/22 01:32:31;;;;;;;7.00;6.30;;;8.30;99.90;;;;;;5090559;28;20538;-81
2022/09/22 01:35:06;;;;;;;7.03;6.33;;;8.30;99.90;;;;;;5098884;28;20448;-81
2022/09/22 01:37:44;;;;;;;7.20;6.50;;;8.30;99.90;;;;;;5098937;28;20560;-80
2022/09/22 01:40:17;;;;;;;6.43;5.83;;;8.30;99.90;;;;;;5098784;28;21008;-80
2022/09/22 01:42:52;;;;;;;7.67;6.40;;;8.20;99.90;;;;;;5098537;28;20471;-81
2022/09/22 01:45:23;;;;;;;9.33;6.10;;;8.20;99.90;;;;;;5097824;28;20455;-79
2022/09/22 01:47:57;;;;;;;7.33;6.53;;;8.10;99.90;;;;;;5100057;28;20482;-81
2022/09/22 01:50:30;;;;;;;6.80;6.20;;;8.10;99.90;;;;;;5098490;28;20463;-81
2022/09/22 01:53:05;;;;;;;7.37;6.67;;;8.10;99.90;;;;;;5099590;28;20637;-81
2022/09/22 01:55:36;;;;;;;7.67;6.63;;;8.10;99.90;;;;;;5098040;28;20447;-79
2022/09/22 01:58:07;;;;;;;8.10;6.97;;;8.10;99.90;;;;;;5098311;28;20440;-79
2022/09/22 02:00:37;;;;;;;6.97;6.30;;;8.10;99.90;;;;;;5097299;28;20800;-78
2022/09/22 02:03:10;;;;;;;7.67;6.57;;;8.10;99.90;;;;;;5097325;28;20834;-80
2022/09/22 02:05:43;;;;;;;7.00;6.40;;;8.00;99.90;;;;;;5097222;28;20551;-79
2022/09/22 02:08:17;;;;;;;7.10;6.20;;;8.00;99.90;;;;;;5097790;28;20443;-80
2022/09/22 02:10:48;;;;;;;7.20;6.47;;;8.00;99.90;;;;;;5097021;28;20465;-81
2022/09/22 02:13:16;;;;;;;7.13;6.43;;;8.00;99.90;;;;;;5097982;28;20460;-79
2022/09/22 02:16:02;;;;;;;7.13;6.43;;;8.00;99.90;;;;;;5098012;28;20480;-81
2022/09/22 02:18:35;;;;;;;8.00;7.20;;;7.90;99.90;;;;;;5097295;28;20444;-81
2022/09/22 02:21:04;;;;;;;7.30;6.60;;;7.90;99.90;;;;;;5097368;28;20950;-79
2022/09/22 02:23:34;;;;;;;7.13;6.43;;;7.90;99.90;;;;;;5097240;28;20511;-79
2022/09/22 02:26:04;;;;;;;6.10;5.50;;;7.90;99.90;;;;;;5097452;28;20449;-80
2022/09/22 02:28:36;;;;;;;6.60;6.00;;;7.90;99.90;;;;;;5097134;28;20432;-80
2022/09/22 02:31:07;;;;;;;6.63;6.03;;;7.90;99.90;;;;;;5098390;28;20498;-80
2022/09/22 02:33:50;;;;;;;7.33;5.90;;;7.80;99.90;;;;;;5098602;28;20535;-79
2022/09/22 02:36:34;;;;;;;6.93;5.90;;;7.80;99.90;;;;;;5097220;28;20448;-80
2022/09/22 02:39:08;;;;;;;6.50;5.60;;;7.80;99.90;;;;;;5098045;28;20441;-80
2022/09/22 02:41:47;;;;;;;5.93;5.40;;;7.80;99.90;;;;;;5097258;28;20447;-79
2022/09/22 02:44:20;;;;;;;6.57;5.57;;;7.80;99.90;;;;;;5096260;28;20447;-80
2022/09/22 02:46:53;;;;;;;7.27;5.70;;;7.80;99.90;;;;;;5095895;28;20463;-79
2022/09/22 02:49:24;;;;;;;7.77;6.77;;;7.70;99.90;;;;;;5096006;28;20465;-80
2022/09/22 02:51:53;;;;;;;6.87;6.17;;;7.70;99.90;;;;;;5097258;28;20460;-79
2022/09/22 02:54:22;;;;;;;6.43;5.83;;;7.70;99.90;;;;;;5095663;28;20456;-79
2022/09/22 02:56:51;;;;;;;6.90;6.30;;;7.70;99.90;;;;;;5097212;28;20429;-80
2022/09/22 02:59:19;;;;;;;6.40;5.90;;;7.60;99.90;;;;;;5095872;28;20452;-80
2022/09/22 03:01:47;;;;;;;6.13;5.53;;;7.60;99.90;;;;;;5095570;28;20466;-79
2022/09/22 03:04:15;;;;;;;6.20;5.60;;;7.60;99.90;;;;;;5095814;28;20447;-80
2022/09/22 03:06:45;;;;;;;6.30;5.70;;;7.60;99.90;;;;;;5097005;28;20434;-79
2022/09/22 03:09:15;;;;;;;7.43;5.80;;;7.60;99.90;;;;;;5095849;28;20543;-79
2022/09/22 03:11:43;;;;;;;5.47;4.97;;;7.60;99.90;;;;;;5095530;28;20460;-79
2022/09/22 03:14:11;;;;;;;11.57;10.47;;;7.60;99.90;;;;;;5095495;28;20500;-79
2022/09/22 03:16:40;;;;;;;10.80;9.80;;;7.60;99.90;;;;;;5096995;28;20426;-79
2022/09/22 03:19:08;;;;;;;10.30;9.20;;;7.60;99.90;;;;;;5095916;28;20474;-80
2022/09/22 03:21:36;;;;;;;13.23;11.93;;;7.50;99.90;;;;;;5095552;28;20449;-79
2022/09/22 03:24:05;;;;;;;17.50;15.80;;;7.50;99.90;;;;;;5095259;28;20460;-79
2022/09/22 03:26:34;;;;;;;21.10;18.90;;;7.50;99.90;;;;;;5095142;28;20451;-79
2022/09/22 03:29:02;;;;;;;21.37;19.07;;;7.50;99.90;;;;;;5096493;28;20456;-79
2022/09/22 03:31:30;;;;;;;15.13;13.10;;;7.50;99.90;;;;;;5096988;28;20468;-79
2022/09/22 03:33:58;;;;;;;14.10;11.50;;;7.40;99.90;;;;;;5096047;28;20451;-79
2022/09/22 03:36:27;;;;;;;13.67;12.30;;;7.40;99.90;;;;;;5101042;28;20448;-80
2022/09/22 03:38:55;;;;;;;13.63;11.57;;;7.50;99.90;;;;;;5102585;28;20447;-79
2022/09/22 03:41:36;;;;;;;13.50;12.10;;;7.40;99.90;;;;;;5101594;28;20440;-78
2022/09/22 03:44:04;;;;;;;12.63;9.83;;;7.40;99.90;;;;;;5100190;28;20435;-79
2022/09/22 03:46:33;;;;;;;9.70;8.70;;;7.40;99.90;;;;;;5098763;28;20879;-78
2022/09/22 03:49:02;;;;;;;6.93;5.87;;;7.40;99.90;;;;;;5097920;28;20440;-78
2022/09/22 03:51:30;;;;;;;7.17;6.53;;;7.30;99.90;;;;;;5097910;28;20460;-79
2022/09/22 03:53:58;;;;;;;5.60;4.80;;;7.30;99.90;;;;;;5097785;28;20445;-79
2022/09/22 03:56:28;;;;;;;5.27;4.77;;;7.30;99.90;;;;;;5098652;28;20456;-78
2022/09/22 03:58:56;;;;;;;5.60;4.97;;;7.30;99.90;;;;;;5097325;28;20814;-79
2022/09/22 04:01:24;;;;;;;8.83;6.20;;;7.30;99.90;;;;;;5098838;28;20494;-78
2022/09/22 04:03:52;;;;;;;5.37;4.37;;;7.30;99.90;;;;;;5099504;28;20447;-78
2022/09/22 04:06:20;;;;;;;4.63;4.23;;;7.20;99.90;;;;;;5099741;28;20498;-79
2022/09/22 04:08:48;;;;;;;5.70;4.70;;;7.20;99.90;;;;;;5100805;28;20443;-79
2022/09/22 04:11:17;;;;;;;6.50;4.93;;;7.20;99.90;;;;;;5097218;28;20460;-78
2022/09/22 04:13:46;;;;;;;6.40;4.50;;;7.20;99.90;;;;;;5096307;28;20470;-77
2022/09/22 04:16:14;;;;;;;5.20;4.57;;;7.20;99.90;;;;;;5095135;28;20458;-77
2022/09/22 04:18:43;;;;;;;5.20;4.60;;;7.20;99.90;;;;;;5095210;28;20444;-78
2022/09/22 04:21:11;;;;;;;6.10;5.50;;;7.10;99.90;;;;;;5095409;28;20455;-77
2022/09/22 04:23:39;;;;;;;5.10;4.60;;;7.10;99.90;;;;;;5095312;28;20858;-78
2022/09/22 04:26:07;;;;;;;5.80;4.40;;;7.10;99.90;;;;;;5097434;28;20457;-80
2022/09/22 04:28:35;;;;;;;6.27;4.60;;;7.10;99.90;;;;;;5098331;28;20440;-79
2022/09/22 04:31:05;;;;;;;5.50;5.00;;;7.10;99.90;;;;;;5096167;28;20476;-78
2022/09/22 04:33:33;;;;;;;6.00;5.13;;;7.10;99.90;;;;;;5096613;28;20836;-78
2022/09/22 04:36:02;;;;;;;6.40;5.70;;;7.00;99.90;;;;;;5096640;28;20455;-78
2022/09/22 04:38:30;;;;;;;7.10;6.40;;;7.10;99.90;;;;;;5096522;28;20452;-79
2022/09/22 04:40:58;;;;;;;7.27;6.57;;;7.00;99.90;;;;;;5096056;28;20455;-78
2022/09/22 04:43:26;;;;;;;7.13;6.43;;;7.10;99.90;;;;;;5097212;28;20509;-77
2022/09/22 04:45:54;;;;;;;7.20;6.23;;;7.00;99.90;;;;;;5095563;28;20456;-77
2022/09/22 04:48:24;;;;;;;6.77;5.87;;;7.00;99.90;;;;;;5096293;28;20535;-77
2022/09/22 04:50:52;;;;;;;10.47;5.87;;;7.00;99.90;;;;;;5096853;28;20832;-79
2022/09/22 04:53:20;;;;;;;6.30;5.70;;;6.90;99.90;;;;;;5097393;28;20455;-77
2022/09/22 04:55:49;;;;;;;5.47;4.97;;;6.90;99.90;;;;;;5095408;28;20962;-79
2022/09/22 04:58:17;;;;;;;6.67;5.80;;;6.90;99.90;;;;;;5097449;28;20502;-77
2022/09/22 05:00:45;;;;;;;6.10;5.40;;;6.90;99.90;;;;;;5100385;28;20443;-79
2022/09/22 05:03:13;;;;;;;6.13;5.40;;;6.90;99.90;;;;;;5100108;28;20477;-79
2022/09/22 05:05:49;;;;;;;5.63;4.80;;;6.90;99.90;;;;;;5098041;28;20910;-77
2022/09/22 05:08:17;;;;;;;5.67;5.17;;;6.90;99.90;;;;;;5101461;28;20444;-78
2022/09/22 05:10:45;;;;;;;6.20;5.60;;;6.90;99.90;;;;;;5101627;28;20469;-78
2022/09/22 05:13:14;;;;;;;6.80;5.10;;;6.80;99.90;;;;;;5100938;28;20465;-78
2022/09/22 05:15:43;;;;;;;6.87;5.83;;;6.80;99.90;;;;;;5104198;28;20434;-80
2022/09/22 05:18:11;;;;;;;5.57;5.07;;;6.80;99.90;;;;;;5102518;28;20447;-78
2022/09/22 05:20:39;;;;;;;6.00;5.13;;;6.80;99.90;;;;;;5101678;28;20447;-78
2022/09/22 05:23:09;;;;;;;6.33;5.37;;;6.80;99.90;;;;;;5101497;28;20462;-79
2022/09/22 05:25:38;;;;;;;6.93;5.73;;;6.80;99.90;;;;;;5100036;28;20451;-78
2022/09/22 05:28:06;;;;;;;5.63;5.13;;;6.80;99.90;;;;;;5100525;28;20458;-78
2022/09/22 05:30:34;;;;;;;7.33;5.83;;;6.80;99.90;;;;;;5100354;28;20462;-78
2022/09/22 05:33:02;;;;;;;6.00;5.40;;;6.80;99.90;;;;;;5101281;28;20460;-79
2022/09/22 05:35:30;;;;;;;6.80;6.10;;;6.80;99.90;;;;;;5101939;28;20799;-78
2022/09/22 05:38:03;;;;;;;7.20;6.10;;;6.80;99.90;;;;;;5099975;28;20453;-79
2022/09/22 05:40:33;;;;;;;7.00;6.27;;;6.80;99.90;;;;;;5099956;28;21029;-78
2022/09/22 05:43:02;;;;;;;8.50;6.30;;;6.80;99.90;;;;;;5099976;28;20596;-78
2022/09/22 05:45:30;;;;;;;7.00;5.73;;;6.80;99.90;;;;;;5100175;28;20443;-79
2022/09/22 05:47:58;;;;;;;6.17;5.57;;;6.80;99.90;;;;;;5100903;28;20451;-78
2022/09/22 05:50:26;;;;;;;7.10;6.40;;;6.80;99.90;;;;;;5100135;28;20890;-79
2022/09/22 05:53:03;;;;;;;6.57;6.00;;;6.80;99.90;;;;;;5099716;28;20485;-79
2022/09/22 05:55:34;;;;;;;8.10;6.97;;;6.80;99.90;;;;;;5108110;28;20502;-80
2022/09/22 05:58:02;;;;;;;6.83;6.23;;;6.80;99.90;;;;;;5105596;28;20436;-79
2022/09/22 06:00:31;;;;;;;7.10;5.93;;;6.80;99.90;;;;;;5104861;28;20510;-79
2022/09/22 06:02:59;;;;;;;7.00;6.17;;;6.80;99.90;;;;;;5103887;28;20471;-78
2022/09/22 06:05:27;;;;;;;6.37;5.60;;;6.80;99.90;;;;;;5104764;28;20452;-78
2022/09/22 06:07:59;;;;;;;6.77;6.07;;;6.80;99.90;;;;;;5103421;28;20466;-80
2022/09/22 06:10:28;;;;;;;6.60;5.90;;;6.90;99.90;;;;;;5103924;28;20461;-80
2022/09/22 06:13:01;;;;;;;6.47;5.87;;;6.90;99.90;;;;;;5104057;28;20846;-79
2022/09/22 06:15:32;;;;;;;9.10;6.60;;;7.00;99.90;;;;;;5103502;28;20436;-79
2022/09/22 06:18:01;;;;;;;7.47;6.67;;;7.10;99.90;;;;;;5102839;28;20478;-79
2022/09/22 06:20:32;;;;;;;11.50;9.37;;;7.20;99.90;;;;;;5105121;28;20454;-80
2022/09/22 06:23:01;;;;;;;10.13;9.00;;;7.40;99.90;;;;;;5106854;28;20458;-81
2022/09/22 06:25:29;;;;;;;9.77;8.87;;;7.50;99.90;;;;;;5106977;28;20440;-79
2022/09/22 06:28:04;;;;;;;9.00;8.20;;;7.60;99.90;;;;;;5106001;28;20440;-79
2022/09/22 06:30:33;;;;;;;9.17;8.17;;;7.80;99.90;;;;;;5105428;28;20459;-81
2022/09/22 06:33:02;;;;;;;8.17;7.50;;;7.90;99.90;;;;;;5107052;28;20518;-80
2022/09/22 06:35:36;;;;;;;9.13;8.23;;;7.90;99.90;;;;;;5106334;28;20451;-79
2022/09/22 06:38:06;;;;;;;8.50;7.80;;;8.00;99.90;;;;;;5105847;28;20448;-80
2022/09/22 06:40:35;;;;;;;9.70;8.80;;;8.00;99.90;;;;;;5108774;28;20478;-79
2022/09/22 06:43:09;;;;;;;9.77;8.97;;;8.10;99.90;;;;;;5112910;28;20540;-80
2022/09/22 06:45:37;;;;;;;11.50;9.57;;;8.10;99.90;;;;;;5111665;28;20444;-79
2022/09/22 06:48:06;;;;;;;9.57;8.77;;;8.00;99.90;;;;;;5108914;28;20455;-79
2022/09/22 06:50:39;;;;;;;10.90;10.00;;;8.10;99.90;;;;;;5105733;28;20490;-81
2022/09/22 06:53:11;;;;;;;12.27;11.07;;;8.10;99.90;;;;;;5104762;28;20486;-78
2022/09/22 06:55:40;;;;;;;10.63;9.70;;;8.20;99.90;;;;;;5107624;28;20443;-81
2022/09/22 06:58:11;;;;;;;13.10;11.77;;;8.20;99.90;;;;;;5108437;28;20448;-80
2022/09/22 07:00:41;;;;;;;13.87;12.70;;;8.20;99.90;;;;;;5107649;28;20446;-81
2022/09/22 07:03:18;;;;;;;14.17;12.97;;;8.20;99.90;;;;;;5107585;28;20456;-79
2022/09/22 07:05:53;;;;;;;15.40;14.10;;;8.20;99.90;;;;;;5106244;28;20440;-80
2022/09/22 07:08:22;;;;;;;15.00;13.80;;;8.30;99.90;;;;;;5107673;28;20943;-79
2022/09/22 07:10:55;;;;;;;18.40;16.73;;;8.30;99.90;;;;;;5107729;28;20489;-80
2022/09/22 07:13:28;;;;;;;19.37;17.53;;;8.40;99.90;;;;;;5105857;28;20513;-79
2022/09/22 07:16:00;;;;;;;17.60;16.20;;;8.40;99.90;;;;;;5104513;28;20466;-80
2022/09/22 07:18:28;;;;;;;15.33;13.90;;;8.50;99.90;;;;;;5104654;28;20444;-80
2022/09/22 07:21:02;;;;;;;14.60;13.40;;;8.50;99.90;;;;;;5104215;28;20445;-80
2022/09/22 07:23:30;;;;;;;13.40;12.30;;;8.60;99.90;;;;;;5102954;28;20489;-81
2022/09/22 07:25:59;;;;;;;13.30;12.20;;;8.60;99.90;;;;;;5102807;28;20475;-80
2022/09/22 07:28:30;;;;;;;14.53;13.23;;;8.80;99.90;;;;;;5102759;28;20539;-79
2022/09/22 07:31:04;;;;;;;14.80;13.40;;;8.80;99.90;;;;;;5102770;28;20454;-80
2022/09/22 07:33:33;;;;;;;12.57;11.57;;;8.80;99.90;;;;;;5102960;28;20526;-81
2022/09/22 07:36:07;;;;;;;13.60;12.00;;;8.90;99.90;;;;;;5103069;28;20538;-81
2022/09/22 07:38:36;;;;;;;12.40;11.20;;;8.90;99.90;;;;;;5102310;28;20444;-80
2022/09/22 07:41:05;;;;;;;13.03;11.70;;;9.00;99.90;;;;;;5103759;28;20452;-80
2022/09/22 07:43:35;;;;;;;13.23;11.93;;;9.10;99.90;;;;;;5105403;28;20482;-81
2022/09/22 07:46:04;;;;;;;12.70;11.50;;;9.20;99.90;;;;;;5107161;28;20482;-80
2022/09/22 07:48:41;;;;;;;12.60;11.50;;;9.30;99.90;;;;;;5106823;28;20444;-80
2022/09/22 07:51:11;;;;;;;12.40;11.20;;;9.40;99.90;;;;;;5104245;28;20428;-81
2022/09/22 07:53:45;;;;;;;15.10;13.73;;;9.50;99.90;;;;;;5103715;28;20476;-80
2022/09/22 07:56:16;;;;;;;11.13;10.10;;;9.70;99.90;;;;;;5105132;28;20466;-80
2022/09/22 07:58:52;;;;;;;11.93;9.53;;;9.90;99.90;;;;;;5103731;28;20466;-80
2022/09/22 08:01:23;;;;;;;9.90;8.90;;;10.10;99.90;;;;;;5102953;28;20447;-80
2022/09/22 08:03:51;;;;;;;10.90;9.40;;;10.20;99.90;;;;;;5103154;28;20914;-80
2022/09/22 08:06:21;;;;;;;8.57;7.77;;;10.40;99.90;;;;;;5102307;28;20455;-80
2022/09/22 08:08:54;;;;;;;8.50;6.33;;;10.60;99.90;;;;;;5104810;28;20957;-79
2022/09/22 08:11:24;;;;;;;11.23;7.10;;;10.80;99.90;;;;;;5102606;28;20436;-81
2022/09/22 08:13:55;;;;;;;8.60;6.90;;;11.10;99.90;;;;;;5103253;28;20471;-78
2022/09/22 08:16:27;;;;;;;8.10;5.70;;;11.30;99.90;;;;;;5101329;28;20836;-78
2022/09/22 08:18:56;;;;;;;7.53;5.73;;;11.40;99.90;;;;;;5101775;28;20433;-80
2022/09/22 08:21:25;;;;;;;6.80;5.87;;;11.60;99.90;;;;;;5102145;28;20463;-79
2022/09/22 08:23:59;;;;;;;10.83;5.40;;;11.80;99.90;;;;;;5105161;28;20443;-80
2022/09/22 08:26:28;;;;;;;8.33;5.37;;;12.00;99.90;;;;;;5101531;28;20448;-78
2022/09/22 08:28:58;;;;;;;6.20;4.47;;;12.30;99.90;;;;;;5102207;28;20471;-79
2022/09/22 08:31:28;;;;;;;6.80;4.30;;;12.30;99.90;;;;;;5102874;28;20447;-79
2022/09/22 08:33:57;;;;;;;8.00;5.50;;;12.50;99.90;;;;;;5103992;28;20452;-80
2022/09/22 08:36:27;;;;;;;6.80;4.27;;;12.70;99.90;;;;;;5102966;28;20466;-79
2022/09/22 08:38:56;;;;;;;5.40;4.20;;;12.80;99.90;;;;;;5103238;28;20523;-79
2022/09/22 08:41:34;;;;;;;8.23;3.60;;;13.00;99.90;;;;;;5101653;28;20466;-80
2022/09/22 08:44:17;;;;;;;5.20;3.53;;;13.10;99.90;;;;;;5105159;28;20437;-78
2022/09/22 08:46:46;;;;;;;5.13;3.90;;;13.20;99.90;;;;;;5105874;28;20496;-80
2022/09/22 08:52:16;;;;;;;7.07;4.00;;;13.50;99.90;;;;;;5103832;28;20563;-78
2022/09/22 08:54:45;;;;;;;4.53;2.60;;;13.60;99.90;;;;;;5104432;28;20886;-78
2022/09/22 08:57:54;;;;;;;8.43;3.20;;;13.80;99.90;;;;;;5102588;28;20445;-81
2022/09/22 09:00:30;;;;;;;5.73;2.90;;;13.90;99.90;;;;;;5058735;28;20479;-79
2022/09/22 09:03:15;;;;;;;4.73;2.80;;;14.00;99.90;;;;;;5099876;28;20466;-80
2022/09/22 09:05:53;;;;;;;3.53;2.57;;;14.10;99.90;;;;;;5100557;28;20448;-79
2022/09/22 09:09:03;;;;;;;4.47;2.30;;;14.20;99.90;;;;;;5101444;28;20452;-79
2022/09/22 09:11:57;;;;;;;6.17;2.27;;;14.40;99.90;;;;;;5064071;28;20878;-81
2022/09/22 09:14:39;;;;;;;4.00;2.50;;;14.50;99.90;;;;;;5102285;28;20474;-80
2022/09/22 09:17:15;;;;;;;6.40;4.47;;;14.50;99.90;;;;;;5104021;28;20448;-80
2022/09/22 09:19:46;;;;;;;3.67;2.27;;;14.70;99.90;;;;;;5104395;28;20451;-80
2022/09/22 09:22:23;;;;;;;7.17;3.43;;;14.70;99.90;;;;;;5104484;28;20486;-82
2022/09/22 09:24:56;;;;;;;4.70;1.90;;;14.80;99.90;;;;;;5106596;28;20486;-81
2022/09/22 09:27:51;;;;;;;9.20;3.50;;;14.90;99.90;;;;;;5104962;28;20421;-80
2022/09/22 09:30:21;;;;;;;5.43;2.23;;;15.00;99.90;;;;;;5106595;28;20459;-79
2022/09/22 09:32:52;;;;;;;3.03;1.77;;;15.10;99.90;;;;;;5102993;28;20906;-81
2022/09/22 09:35:25;;;;;;;4.97;2.30;;;15.20;99.90;;;;;;5103451;28;20472;-81
2022/09/22 09:37:57;;;;;;;4.30;2.07;;;15.30;99.90;;;;;;5102655;28;20819;-80
2022/09/22 09:40:26;;;;;;;6.77;2.20;;;15.40;99.90;;;;;;5099303;28;20446;-79
2022/09/22 09:42:59;;;;;;;4.80;2.20;;;15.40;99.90;;;;;;5098998;28;20556;-79
2022/09/22 09:45:37;;;;;;;3.90;2.50;;;15.50;99.90;;;;;;5103584;28;20499;-78
2022/09/22 09:48:23;;;;;;;6.53;2.13;;;15.50;99.90;;;;;;5105360;28;20466;-81
2022/09/22 09:50:51;;;;;;;5.10;2.13;;;15.60;99.90;;;;;;5104882;28;20477;-79
2022/09/22 09:53:31;;;;;;;3.73;1.80;;;15.70;99.90;;;;;;5107845;28;20447;-80
2022/09/22 09:55:59;;;;;;;3.93;1.73;;;15.80;99.90;;;;;;5106390;28;20520;-80
2022/09/22 10:01:14;;;;;;;4.20;2.07;;;15.90;99.90;;;;;;5110765;28;20440;-80
2022/09/22 10:03:53;;;;;;;5.67;1.90;;;16.00;99.90;;;;;;5110623;28;20456;-80
2022/09/22 10:06:25;;;;;;;3.90;1.67;;;16.10;99.90;;;;;;5108828;28;20788;-80
2022/09/22 10:08:53;;;;;;;3.60;1.60;;;16.10;99.90;;;;;;5109260;28;20520;-80
2022/09/22 10:11:31;;;;;;;3.90;1.70;;;16.10;99.90;;;;;;5108267;28;20512;-81
2022/09/22 10:13:59;;;;;;;3.83;1.60;;;16.20;99.90;;;;;;5109217;28;20455;-80
2022/09/22 10:16:29;;;;;;;4.30;2.00;;;16.20;99.90;;;;;;5108440;28;20445;-84
2022/09/22 10:19:20;;;;;;;4.30;1.80;;;16.30;99.90;;;;;;5108893;28;20441;-81
2022/09/22 10:21:51;;;;;;;5.60;2.30;;;16.30;99.90;;;;;;5109009;28;20435;-81
2022/09/22 10:24:30;;;;;;;3.03;1.33;;;16.40;99.90;;;;;;5109349;28;20433;-80
2022/09/22 10:26:59;;;;;;;3.20;1.40;;;16.40;99.90;;;;;;5109416;28;20446;-81
2022/09/22 10:29:32;;;;;;;6.33;2.13;;;16.40;99.90;;;;;;5109077;28;20455;-80
2022/09/22 10:32:15;;;;;;;4.47;1.70;;;16.50;99.90;;;;;;5108840;28;20472;-80
2022/09/22 10:34:49;;;;;;;4.47;1.40;;;16.50;99.90;;;;;;5110084;28;20456;-80
2022/09/22 10:37:21;;;;;;;4.43;1.73;;;16.60;99.90;;;;;;5110204;28;20487;-81
2022/09/22 10:39:51;;;;;;;5.00;2.10;;;16.60;99.90;;;;;;5110120;28;20421;-80
2022/09/22 10:42:27;;;;;;;3.40;1.60;;;16.60;99.90;;;;;;5110106;28;20464;-80
2022/09/22 10:45:01;;;;;;;3.77;1.53;;;16.70;99.90;;;;;;5109568;28;20542;-80
2022/09/22 10:47:46;;;;;;;2.87;1.20;;;16.70;99.90;;;;;;5109570;28;20425;-81
2022/09/22 10:50:55;;;;;;;4.43;1.50;;;16.70;99.90;;;;;;5108747;28;20471;-81
2022/09/22 10:53:36;;;;;;;4.83;1.40;;;16.70;99.90;;;;;;5031447;28;20445;-80
2022/09/22 10:56:17;;;;;;;6.00;1.90;;;16.80;99.90;;;;;;5105258;28;20422;-81
2022/09/22 10:59:02;;;;;;;4.63;1.53;;;16.80;99.90;;;;;;5107893;28;20416;-82
2022/09/22 11:01:42;;;;;;;3.90;1.90;;;16.90;99.90;;;;;;5107875;28;20430;-81
2022/09/22 11:04:47;;;;;;;3.33;1.20;;;16.90;99.90;;;;;;5108788;28;20416;-81
2022/09/22 11:13:35;;;;;;;5.07;1.90;;;17.00;99.90;;;;;;5110278;28;20483;-80
2022/09/22 11:16:27;;;;;;;2.93;1.40;;;17.10;99.90;;;;;;5109105;28;20425;-80
2022/09/22 11:19:29;;;;;;;4.73;1.90;;;17.10;99.90;;;;;;5109431;28;20426;-81
2022/09/22 11:22:18;;;;;;;5.33;1.67;;;17.20;99.90;;;;;;5077461;28;20446;-81
2022/09/22 11:25:02;;;;;;;3.63;1.20;;;17.20;99.90;;;;;;5108135;28;20445;-81
2022/09/22 11:27:51;;;;;;;3.20;1.27;;;17.30;99.90;;;;;;5107528;28;20440;-83
2022/09/22 11:30:21;;;;;;;6.13;1.60;;;17.30;99.90;;;;;;5106318;28;20430;-80
2022/09/22 11:33:07;;;;;;;3.83;1.80;;;17.40;99.90;;;;;;5107557;28;20832;-82
2022/09/22 11:35:53;;;;;;;5.80;1.57;;;17.40;99.70;;;;;;5105896;28;20490;-81
2022/09/22 11:38:46;;;;;;;2.73;1.60;;;17.50;99.50;;;;;;5107261;28;20864;-81
2022/09/22 11:41:30;;;;;;;4.60;1.50;;;17.50;99.10;;;;;;5097132;28;20419;-81
2022/09/22 11:44:38;;;;;;;3.30;1.30;;;17.50;98.90;;;;;;5107269;28;20412;-81
2022/09/22 11:47:44;;;;;;;4.20;1.60;;;17.60;98.70;;;;;;5106559;28;20448;-79
2022/09/22 11:50:35;;;;;;;6.00;1.70;;;17.60;98.60;;;;;;5102522;28;20411;-81
2022/09/22 11:53:23;;;;;;;4.80;1.60;;;17.60;98.40;;;;;;5105638;28;20551;-81
2022/09/22 11:56:05;;;;;;;3.30;1.60;;;17.60;98.50;;;;;;5111059;28;20448;-82
2022/09/22 11:58:39;;;;;;;5.60;1.67;;;17.60;98.40;;;;;;5117762;28;20414;-80
2022/09/22 12:01:12;;;;;;;4.10;1.60;;;17.60;98.10;;;;;;5118756;28;20446;-79
2022/09/22 12:03:44;;;;;;;3.97;1.50;;;17.60;98.00;;;;;;5114479;28;20453;-81
2022/09/22 12:06:17;;;;;;;3.63;1.40;;;17.60;98.00;;;;;;5114704;28;20424;-82
2022/09/22 12:08:52;;;;;;;4.20;1.60;;;17.70;98.20;;;;;;5116828;28;20421;-81
2022/09/22 12:11:23;;;;;;;6.20;1.90;;;17.60;97.60;;;;;;5113228;28;20484;-80
2022/09/22 12:13:55;;;;;;;3.73;2.10;;;17.60;97.40;;;;;;5110564;28;20416;-82
2022/09/22 12:16:30;;;;;;;5.17;2.10;;;17.60;97.30;;;;;;5111073;28;20387;-82
2022/09/22 12:19:04;;;;;;;4.27;2.07;;;17.50;97.30;;;;;;5109069;28;20440;-80
2022/09/22 12:21:46;;;;;;;3.23;1.70;;;17.50;97.40;;;;;;5108319;28;20435;-82
2022/09/22 12:24:14;;;;;;;4.00;1.40;;;17.50;97.50;;;;;;5108450;28;20428;-82
2022/09/22 12:26:46;;;;;;;4.77;1.87;;;17.40;97.50;;;;;;5110549;28;20436;-82
2022/09/22 12:29:27;;;;;;;4.93;2.00;;;17.40;97.40;;;;;;5110992;28;20490;-82
2022/09/22 12:31:57;;;;;;;3.63;1.70;;;17.40;97.20;;;;;;5109569;28;20452;-82
2022/09/22 12:34:29;;;;;;;6.70;1.70;;;17.50;97.40;;;;;;5109705;28;20452;-82
2022/09/22 12:37:00;;;;;;;5.93;1.70;;;17.50;97.10;;;;;;5107349;28;20475;-80
2022/09/22 12:39:30;;;;;;;3.20;2.13;;;17.60;97.10;;;;;;5108099;28;20411;-81
2022/09/22 12:42:01;;;;;;;4.20;1.40;;;17.60;96.80;;;;;;5108435;28;20480;-81
2022/09/22 12:44:34;;;;;;;4.20;1.43;;;17.60;96.50;;;;;;5108516;28;20391;-80
2022/09/22 12:47:07;;;;;;;3.63;1.80;;;17.60;96.50;;;;;;5107595;28;20899;-80
2022/09/22 12:49:48;;;;;;;3.13;1.50;;;17.60;96.40;;;;;;5107026;28;20417;-82
2022/09/22 12:52:57;;;;;;;3.17;1.60;;;17.50;96.40;;;;;;5107132;28;20441;-82
2022/09/22 12:55:37;;;;;;;3.10;1.63;;;17.50;96.40;;;;;;5105248;28;20456;-81
2022/09/22 12:58:40;;;;;;;8.03;1.90;;;17.50;96.50;;;;;;5106797;28;20409;-82
2022/09/22 13:01:34;;;;;;;4.17;2.10;;;17.50;96.80;;;;;;5106618;28;20776;-80
2022/09/22 13:04:13;;;;;;;3.47;1.60;;;17.60;96.60;;;;;;5094663;28;20791;-80
2022/09/22 13:06:55;;;;;;;3.80;1.77;;;17.70;96.70;;;;;;5106388;28;20433;-80
2022/09/22 13:09:25;;;;;;;4.17;1.70;;;17.70;96.50;;;;;;5103833;28;20815;-80
2022/09/22 13:12:24;;;;;;;4.20;2.53;;;17.70;96.60;;;;;;5105821;28;20472;-80
2022/09/22 13:15:19;;;;;;;7.17;4.57;;;17.70;96.60;;;;;;5060493;28;20511;-80
2022/09/22 13:17:50;;;;;;;4.80;2.23;;;17.80;96.70;;;;;;5104286;28;20416;-80
2022/09/22 13:20:25;;;;;;;6.43;2.30;;;17.90;96.80;;;;;;5106976;28;20885;-81
2022/09/22 13:22:55;;;;;;;3.80;1.40;;;17.90;96.70;;;;;;5108746;28;20451;-81
2022/09/22 13:25:26;;;;;;;4.57;1.53;;;18.00;96.50;;;;;;5108845;28;20468;-81
2022/09/22 13:28:15;;;;;;;4.03;2.10;;;18.10;96.40;;;;;;5106914;28;20490;-80
2022/09/22 13:30:45;;;;;;;4.30;2.17;;;18.20;96.30;;;;;;5108289;28;20433;-82
2022/09/22 13:33:24;;;;;;;3.60;1.70;;;18.30;96.20;;;;;;5108754;28;20485;-81
2022/09/22 13:36:01;;;;;;;3.17;1.47;;;18.40;96.10;;;;;;5108968;28;20452;-80
2022/09/22 13:38:31;;;;;;;4.33;2.23;;;18.40;96.10;;;;;;5108328;28;20431;-82